METAR AND TAF INFORMATION
METAR FOR LEST
ADDS - METARS form results

(0327 UTC 30 June 2022)
Data provider http://aviationweather.gov/metar/data/
 
METAR text: LEST 300300Z 00000KT 9999 FEW016 SCT046 09/09 Q1019 NOSIG
Conditions at: LEST (SANTIAGO/LABACOL, ES) observed 0300 UTC 30 June 2022
Temperature: 9.0°C (48°F)
Dewpoint: 9.0°C (48°F) [RH = 100%]
Pressure (altimeter): 30.09 inches Hg (1019.0 mb)
Winds: calm
Visibility: 6 or more miles (10+ km)
Ceiling: at least 12,000 feet AGL
Clouds: few clouds at 1600 feet AGL
scattered clouds at 4600 feet AGL
Weather: no significant weather observed at this time

METAR text: LEST 300230Z 00000KT 9999 FEW018 SCT048 09/08 Q1019 NOSIG
Conditions at: LEST (SANTIAGO/LABACOL, ES) observed 0230 UTC 30 June 2022
Temperature: 9.0°C (48°F)
Dewpoint: 8.0°C (46°F) [RH = 93%]
Pressure (altimeter): 30.09 inches Hg (1019.0 mb)
Winds: calm
Visibility: 6 or more miles (10+ km)
Ceiling: at least 12,000 feet AGL
Clouds: few clouds at 1800 feet AGL
scattered clouds at 4800 feet AGL
Weather: no significant weather observed at this time

Forecast for: LEST (SANTIAGO/LABACOL, ES)
Text: TAF LEST 292300Z 3000/3024 33007KT 9999 SCT020 TX18/3014Z TN10/3005Z
Forecast period: 0000 UTC 30 June 2022 to 0000 UTC 01 July 2022
Forecast type: FROM: standard forecast or significant change
Winds: from the NNW (330 degrees) at 8 MPH (7 knots; 3.6 m/s)
Visibility: 6 or more miles (10+ km)
Ceiling: at least 12,000 feet AGL
Clouds: scattered clouds at 2000 feet AGL
Weather: no significant weather forecast for this period
Text: PROB30
Forecast period: 0000 to 0700 UTC 30 June 2022
Forecast type: TEMPORARY: The following changes expected for less than half the time period
Visibility: missing
Ceiling: 1000 feet AGL
Clouds: broken clouds at 1000 feet AGL
Weather: no significant weather forecast for this period
Text: TEMPO 3000/3007 BKN010
Forecast period: 0300 to 0600 UTC 30 June 2022
Forecast type: TEMPORARY: The following changes expected for less than half the time period
Visibility: 1.86 miles (2.99 km)
Ceiling: 500 feet AGL
Clouds: broken clouds at 500 feet AGL
Weather: -DZ BCFG  (light drizzle, patches of fog)

 AIRPORT MAP

 RUNWAY INFORMATION
Runway 17 Runway length 10499 ft Runway width 148 ft
Runway elevation 1170 ft Runway displaced threshold 394 ft Runway heading 166
Runway 35 Runway length 10499 ft Runway width 148 ft
Runway elevation 1196 ft Runway displaced threshold 0 ft Runway heading 346

 AIRPORT FREQUENCIES
Type APP Name APP Frequency 118.2 MHZ
Type GND Name GND Frequency 121.7 MHZ
Type TWR Name TWR Frequency 118.75 MHZ

 AIRPORT NEAR NAVIGATION AIDS
Type NDB Name Santiago Frequency 417 KHZ
Type VOR-DME Name Santiago Frequency 116400 KHZ





Powered by Virtual Airlines Manager

Maps by Rafael Santos